Airfield :
LOGIN :

Register | Disclaimer

   EN    FR    IT 

 










Legend :    VFR   Marginal VFR   IFR   Intensive IFR   Very Intensive IFR
Visi :
Ceiling :
>= 8 km
>= 3000ft
5 to 8 km
1000 to 3000 ft
1500m to 5 km
500 to 1000 ft
800 to 1500m
200 to 500 ft
< 800m
< 200 ft
Symbols :   Thunderstorms  Fog  Heavy snow  Heavy precipitations  Wind > 20 kt
SIGMETs :     Misc.  Thunderstorms  Icing  Turbulence  Mountain Waves  Volcanic Ashes






- Airport Elevation : 776 ft
- IATA code : RMS


ETAR - Ramstein Air Base

CURRENT METAR :
  • 261941Z 00000KT 1800 BR FEW100 00/00 A3003 RMK AO2A VIS 1800V3000 VIS 0400 RWY08 SLP186 FZRANO $

EXPIRED METARs :
  • 261856Z 00000KT 9000 BR CLR 01/01 A3003 RMK AO2A SLP186 T00120012 FZRANO $
  • 261756Z AUTO 00000KT 8000 BR BKN095 02/02 A3004 RMK AO2 VIS 2400 RWY08 SLP188 T00160016 10067 20015 50000 FZRANO $
  • 261656Z AUTO 00000KT 8000 BR SCT095 02/02 A3004 RMK AO2 VIS 1800 RWY08 SLP188 T00210021 FZRANO $

TAF TAF ETAR
Valid from the 26 at 18:00 until the 28 at 00:00 UTC


261804Z 2618/2724 VRB06KT 6000 BR SCT020 QNH3008INS
BECMG 2622/2623 21009KT 8000 -SHRA BKN015 QNH2997INS
BECMG 2704/2705 22010G20KT 8000 -SHRA BKN010 QNH2994INS TX07/2712Z TNM02/2702Z



MET'MAP, your aeronautical weather chart ! - Copyright ORBIFLY December 2007 - Disclaimer

ORBIFLY MET'MAP TEAM :

Programming & Development : Alexandra Zaïnal
Concept & original design : Baudouin d'Aumeries
Assistance for programming : Marc-Olivier Méhu
Technical & hardware support : Manuel Goepfert

Contact : metmap@orbifly.com




SOURCES & CREDITS :

   NOAA